sensor_id;sensor_type;location;lat;lon;timestamp;temperature;humidity
13589;DHT22;6865;52.552;13.434;2023-09-08T00:02:28;18.30;99.90
13589;DHT22;6865;52.552;13.434;2023-09-08T00:04:55;18.20;99.90
13589;DHT22;6865;52.552;13.434;2023-09-08T00:07:22;18.20;99.90
13589;DHT22;6865;52.552;13.434;2023-09-08T00:09:48;18.20;99.90
13589;DHT22;6865;52.552;13.434;2023-09-08T00:12:15;18.20;99.90
13589;DHT22;6865;52.552;13.434;2023-09-08T00:14:43;18.10;99.90
13589;DHT22;6865;52.552;13.434;2023-09-08T00:17:09;18.20;99.90
13589;DHT22;6865;52.552;13.434;2023-09-08T00:19:36;18.20;99.90
13589;DHT22;6865;52.552;13.434;2023-09-08T00:22:04;18.10;99.90
13589;DHT22;6865;52.552;13.434;2023-09-08T00:24:33;18.00;99.90
13589;DHT22;6865;52.552;13.434;2023-09-08T00:27:00;18.00;99.90
13589;DHT22;6865;52.552;13.434;2023-09-08T00:29:27;18.00;99.90
13589;DHT22;6865;52.552;13.434;2023-09-08T00:31:54;18.00;99.90
13589;DHT22;6865;52.552;13.434;2023-09-08T00:34:21;18.00;99.90
13589;DHT22;6865;52.552;13.434;2023-09-08T00:36:48;17.80;99.90
13589;DHT22;6865;52.552;13.434;2023-09-08T00:39:14;17.80;99.90
13589;DHT22;6865;52.552;13.434;2023-09-08T00:41:41;17.80;99.90
13589;DHT22;6865;52.552;13.434;2023-09-08T00:44:08;17.90;99.90
13589;DHT22;6865;52.552;13.434;2023-09-08T00:46:35;17.90;99.90
13589;DHT22;6865;52.552;13.434;2023-09-08T00:49:02;17.90;99.90
13589;DHT22;6865;52.552;13.434;2023-09-08T00:51:29;18.00;99.90
13589;DHT22;6865;52.552;13.434;2023-09-08T00:53:56;18.00;99.90
13589;DHT22;6865;52.552;13.434;2023-09-08T00:56:23;17.90;99.90
13589;DHT22;6865;52.552;13.434;2023-09-08T00:58:50;18.00;99.90
13589;DHT22;6865;52.552;13.434;2023-09-08T01:01:17;18.00;99.90
13589;DHT22;6865;52.552;13.434;2023-09-08T01:03:44;18.00;99.90
13589;DHT22;6865;52.552;13.434;2023-09-08T01:06:11;18.00;99.90
13589;DHT22;6865;52.552;13.434;2023-09-08T01:08:38;18.00;99.90
13589;DHT22;6865;52.552;13.434;2023-09-08T01:11:06;18.00;99.90
13589;DHT22;6865;52.552;13.434;2023-09-08T01:13:33;17.90;99.90
13589;DHT22;6865;52.552;13.434;2023-09-08T01:16:01;17.80;99.90
13589;DHT22;6865;52.552;13.434;2023-09-08T01:18:28;17.80;99.90
13589;DHT22;6865;52.552;13.434;2023-09-08T01:21:03;17.80;99.90
13589;DHT22;6865;52.552;13.434;2023-09-08T01:24:11;17.90;99.90
13589;DHT22;6865;52.552;13.434;2023-09-08T01:26:44;18.00;99.90
13589;DHT22;6865;52.552;13.434;2023-09-08T01:29:12;18.10;99.90
13589;DHT22;6865;52.552;13.434;2023-09-08T01:31:39;18.20;99.90
13589;DHT22;6865;52.552;13.434;2023-09-08T01:34:07;18.20;99.90
13589;DHT22;6865;52.552;13.434;2023-09-08T01:36:35;18.20;99.90
13589;DHT22;6865;52.552;13.434;2023-09-08T01:39:02;18.20;99.90
13589;DHT22;6865;52.552;13.434;2023-09-08T01:41:29;18.10;99.90
13589;DHT22;6865;52.552;13.434;2023-09-08T01:43:58;18.10;99.90
13589;DHT22;6865;52.552;13.434;2023-09-08T01:46:25;18.10;99.90
13589;DHT22;6865;52.552;13.434;2023-09-08T01:48:52;18.10;99.90
13589;DHT22;6865;52.552;13.434;2023-09-08T01:51:19;18.10;99.90
13589;DHT22;6865;52.552;13.434;2023-09-08T01:53:45;18.10;99.90
13589;DHT22;6865;52.552;13.434;2023-09-08T01:56:12;18.00;99.90
13589;DHT22;6865;52.552;13.434;2023-09-08T01:58:38;18.10;99.90
13589;DHT22;6865;52.552;13.434;2023-09-08T02:01:05;18.10;99.90
13589;DHT22;6865;52.552;13.434;2023-09-08T02:03:32;18.30;99.90
13589;DHT22;6865;52.552;13.434;2023-09-08T02:05:59;18.10;99.90
13589;DHT22;6865;52.552;13.434;2023-09-08T02:08:26;18.00;99.90
13589;DHT22;6865;52.552;13.434;2023-09-08T02:10:52;18.00;99.90
13589;DHT22;6865;52.552;13.434;2023-09-08T02:13:19;18.00;99.90
13589;DHT22;6865;52.552;13.434;2023-09-08T02:15:46;17.90;99.90
13589;DHT22;6865;52.552;13.434;2023-09-08T02:18:12;18.00;99.90
13589;DHT22;6865;52.552;13.434;2023-09-08T02:20:40;18.00;99.90
13589;DHT22;6865;52.552;13.434;2023-09-08T02:23:07;17.70;99.90
13589;DHT22;6865;52.552;13.434;2023-09-08T02:25:34;18.00;99.90
13589;DHT22;6865;52.552;13.434;2023-09-08T02:28:01;17.90;99.90
13589;DHT22;6865;52.552;13.434;2023-09-08T02:30:27;17.90;99.90
13589;DHT22;6865;52.552;13.434;2023-09-08T02:32:54;17.90;99.90
13589;DHT22;6865;52.552;13.434;2023-09-08T02:35:23;17.80;99.90
13589;DHT22;6865;52.552;13.434;2023-09-08T02:37:50;17.60;99.90
13589;DHT22;6865;52.552;13.434;2023-09-08T02:40:17;17.60;99.90
13589;DHT22;6865;52.552;13.434;2023-09-08T02:42:45;17.70;99.90
13589;DHT22;6865;52.552;13.434;2023-09-08T02:45:12;17.50;99.90
13589;DHT22;6865;52.552;13.434;2023-09-08T02:47:38;17.40;99.90
13589;DHT22;6865;52.552;13.434;2023-09-08T02:50:05;17.30;99.90
13589;DHT22;6865;52.552;13.434;2023-09-08T02:52:33;17.20;99.90
13589;DHT22;6865;52.552;13.434;2023-09-08T02:55:00;17.20;99.90
13589;DHT22;6865;52.552;13.434;2023-09-08T02:57:27;17.10;99.90
13589;DHT22;6865;52.552;13.434;2023-09-08T02:59:53;17.10;99.90
13589;DHT22;6865;52.552;13.434;2023-09-08T03:02:24;17.00;99.90
13589;DHT22;6865;52.552;13.434;2023-09-08T03:04:51;17.00;99.90
13589;DHT22;6865;52.552;13.434;2023-09-08T03:07:18;16.90;99.90
13589;DHT22;6865;52.552;13.434;2023-09-08T03:09:44;16.90;99.90
13589;DHT22;6865;52.552;13.434;2023-09-08T03:12:11;16.80;99.90
13589;DHT22;6865;52.552;13.434;2023-09-08T03:14:38;16.90;99.90
13589;DHT22;6865;52.552;13.434;2023-09-08T03:17:04;16.80;99.90
13589;DHT22;6865;52.552;13.434;2023-09-08T03:19:31;16.90;99.90
13589;DHT22;6865;52.552;13.434;2023-09-08T03:21:58;16.80;99.90
13589;DHT22;6865;52.552;13.434;2023-09-08T03:24:25;16.80;99.90
13589;DHT22;6865;52.552;13.434;2023-09-08T03:26:51;16.90;99.90
13589;DHT22;6865;52.552;13.434;2023-09-08T03:29:18;16.90;99.90
13589;DHT22;6865;52.552;13.434;2023-09-08T03:31:44;16.90;99.90
13589;DHT22;6865;52.552;13.434;2023-09-08T03:34:11;16.80;99.90
13589;DHT22;6865;52.552;13.434;2023-09-08T03:36:39;16.80;99.90
13589;DHT22;6865;52.552;13.434;2023-09-08T03:39:06;16.80;99.90
13589;DHT22;6865;52.552;13.434;2023-09-08T03:41:33;16.80;99.90
13589;DHT22;6865;52.552;13.434;2023-09-08T03:43:59;16.70;99.90
13589;DHT22;6865;52.552;13.434;2023-09-08T03:46:26;16.90;99.90
13589;DHT22;6865;52.552;13.434;2023-09-08T03:48:53;16.90;99.90
13589;DHT22;6865;52.552;13.434;2023-09-08T03:51:25;17.00;99.90
13589;DHT22;6865;52.552;13.434;2023-09-08T03:53:51;17.00;99.90
13589;DHT22;6865;52.552;13.434;2023-09-08T03:56:18;17.00;99.90
13589;DHT22;6865;52.552;13.434;2023-09-08T03:58:45;17.10;99.90
13589;DHT22;6865;52.552;13.434;2023-09-08T04:01:11;17.10;99.90
13589;DHT22;6865;52.552;13.434;2023-09-08T04:03:38;17.10;99.90
13589;DHT22;6865;52.552;13.434;2023-09-08T04:06:05;17.10;99.90
13589;DHT22;6865;52.552;13.434;2023-09-08T04:08:31;17.10;99.90
13589;DHT22;6865;52.552;13.434;2023-09-08T04:10:58;17.10;99.90
13589;DHT22;6865;52.552;13.434;2023-09-08T04:13:25;16.10;99.90
13589;DHT22;6865;52.552;13.434;2023-09-08T04:15:51;17.10;99.90
13589;DHT22;6865;52.552;13.434;2023-09-08T04:18:18;17.10;99.90
13589;DHT22;6865;52.552;13.434;2023-09-08T04:20:45;17.10;99.90
13589;DHT22;6865;52.552;13.434;2023-09-08T04:23:12;17.00;99.90
13589;DHT22;6865;52.552;13.434;2023-09-08T04:25:38;17.00;99.90
13589;DHT22;6865;52.552;13.434;2023-09-08T04:28:05;16.90;99.90
13589;DHT22;6865;52.552;13.434;2023-09-08T04:30:32;17.00;99.90
13589;DHT22;6865;52.552;13.434;2023-09-08T04:32:58;17.00;99.90
13589;DHT22;6865;52.552;13.434;2023-09-08T04:35:25;16.70;99.90
13589;DHT22;6865;52.552;13.434;2023-09-08T04:37:52;17.10;99.90
13589;DHT22;6865;52.552;13.434;2023-09-08T04:40:20;17.00;99.90
13589;DHT22;6865;52.552;13.434;2023-09-08T04:42:46;17.00;99.90
13589;DHT22;6865;52.552;13.434;2023-09-08T04:45:13;17.10;99.90
13589;DHT22;6865;52.552;13.434;2023-09-08T04:47:40;17.10;99.90
13589;DHT22;6865;52.552;13.434;2023-09-08T04:50:07;17.00;99.90
13589;DHT22;6865;52.552;13.434;2023-09-08T04:52:34;17.00;99.90
13589;DHT22;6865;52.552;13.434;2023-09-08T04:55:01;17.00;99.90
13589;DHT22;6865;52.552;13.434;2023-09-08T04:57:27;17.00;99.90
13589;DHT22;6865;52.552;13.434;2023-09-08T04:59:55;16.90;99.90
13589;DHT22;6865;52.552;13.434;2023-09-08T05:02:22;17.00;99.90
13589;DHT22;6865;52.552;13.434;2023-09-08T05:04:49;16.90;99.90
13589;DHT22;6865;52.552;13.434;2023-09-08T05:07:15;16.90;99.90
13589;DHT22;6865;52.552;13.434;2023-09-08T05:09:42;16.90;99.90
13589;DHT22;6865;52.552;13.434;2023-09-08T05:12:09;16.80;99.90
13589;DHT22;6865;52.552;13.434;2023-09-08T05:14:35;16.80;99.90
13589;DHT22;6865;52.552;13.434;2023-09-08T05:17:03;16.90;99.90
13589;DHT22;6865;52.552;13.434;2023-09-08T05:19:29;17.00;99.90
13589;DHT22;6865;52.552;13.434;2023-09-08T05:21:56;17.00;99.90
13589;DHT22;6865;52.552;13.434;2023-09-08T05:24:23;17.00;99.90
13589;DHT22;6865;52.552;13.434;2023-09-08T05:26:52;17.10;99.90
13589;DHT22;6865;52.552;13.434;2023-09-08T05:29:19;17.00;99.90
13589;DHT22;6865;52.552;13.434;2023-09-08T05:31:46;17.00;99.90
13589;DHT22;6865;52.552;13.434;2023-09-08T05:34:12;17.00;99.90
13589;DHT22;6865;52.552;13.434;2023-09-08T05:36:39;17.00;99.90
13589;DHT22;6865;52.552;13.434;2023-09-08T05:39:07;17.00;99.90
13589;DHT22;6865;52.552;13.434;2023-09-08T05:41:34;17.00;99.90
13589;DHT22;6865;52.552;13.434;2023-09-08T05:44:01;17.10;99.90
13589;DHT22;6865;52.552;13.434;2023-09-08T05:46:28;17.10;99.90
13589;DHT22;6865;52.552;13.434;2023-09-08T05:48:55;17.20;99.90
13589;DHT22;6865;52.552;13.434;2023-09-08T05:51:21;17.20;99.90
13589;DHT22;6865;52.552;13.434;2023-09-08T05:53:49;17.30;99.90
13589;DHT22;6865;52.552;13.434;2023-09-08T05:56:18;17.40;99.90
13589;DHT22;6865;52.552;13.434;2023-09-08T05:58:45;17.70;99.90
13589;DHT22;6865;52.552;13.434;2023-09-08T06:01:12;17.90;99.90
13589;DHT22;6865;52.552;13.434;2023-09-08T06:03:39;18.00;99.90
13589;DHT22;6865;52.552;13.434;2023-09-08T06:06:06;18.00;99.90
13589;DHT22;6865;52.552;13.434;2023-09-08T06:08:32;18.10;99.90
13589;DHT22;6865;52.552;13.434;2023-09-08T06:10:59;18.10;99.90
13589;DHT22;6865;52.552;13.434;2023-09-08T06:13:26;18.10;99.90
13589;DHT22;6865;52.552;13.434;2023-09-08T06:15:53;18.20;99.90
13589;DHT22;6865;52.552;13.434;2023-09-08T06:18:20;18.30;99.90
13589;DHT22;6865;52.552;13.434;2023-09-08T06:20:47;18.30;99.90
13589;DHT22;6865;52.552;13.434;2023-09-08T06:23:14;19.50;99.90
13589;DHT22;6865;52.552;13.434;2023-09-08T06:25:41;18.50;99.90
13589;DHT22;6865;52.552;13.434;2023-09-08T06:28:08;18.60;99.90
13589;DHT22;6865;52.552;13.434;2023-09-08T06:30:34;18.60;99.90
13589;DHT22;6865;52.552;13.434;2023-09-08T06:33:01;18.80;99.90
13589;DHT22;6865;52.552;13.434;2023-09-08T06:35:30;18.90;99.90
13589;DHT22;6865;52.552;13.434;2023-09-08T06:37:57;19.00;99.90
13589;DHT22;6865;52.552;13.434;2023-09-08T06:40:24;19.10;99.90
13589;DHT22;6865;52.552;13.434;2023-09-08T06:42:51;19.10;99.90
13589;DHT22;6865;52.552;13.434;2023-09-08T06:45:18;19.30;99.90
13589;DHT22;6865;52.552;13.434;2023-09-08T06:47:45;19.40;99.90
13589;DHT22;6865;52.552;13.434;2023-09-08T06:50:12;19.50;99.90
13589;DHT22;6865;52.552;13.434;2023-09-08T06:52:38;19.50;99.90
13589;DHT22;6865;52.552;13.434;2023-09-08T06:55:05;19.60;99.90
13589;DHT22;6865;52.552;13.434;2023-09-08T06:57:32;19.60;99.90
13589;DHT22;6865;52.552;13.434;2023-09-08T06:59:58;19.70;99.90
13589;DHT22;6865;52.552;13.434;2023-09-08T07:02:25;19.90;99.90
13589;DHT22;6865;52.552;13.434;2023-09-08T07:04:52;20.20;99.90
13589;DHT22;6865;52.552;13.434;2023-09-08T07:07:19;20.90;99.90
13589;DHT22;6865;52.552;13.434;2023-09-08T07:09:47;21.50;99.90
13589;DHT22;6865;52.552;13.434;2023-09-08T07:12:13;22.40;99.90
13589;DHT22;6865;52.552;13.434;2023-09-08T07:14:40;23.20;99.90
13589;DHT22;6865;52.552;13.434;2023-09-08T07:17:07;23.90;99.90
13589;DHT22;6865;52.552;13.434;2023-09-08T07:19:34;24.30;99.90
13589;DHT22;6865;52.552;13.434;2023-09-08T07:22:00;24.70;99.90
13589;DHT22;6865;52.552;13.434;2023-09-08T07:24:27;24.90;99.90
13589;DHT22;6865;52.552;13.434;2023-09-08T07:26:53;24.90;99.50
13589;DHT22;6865;52.552;13.434;2023-09-08T07:29:20;24.60;99.80
13589;DHT22;6865;52.552;13.434;2023-09-08T07:31:47;24.10;99.90
13589;DHT22;6865;52.552;13.434;2023-09-08T07:34:13;23.60;99.90
13589;DHT22;6865;52.552;13.434;2023-09-08T07:36:40;23.10;99.90
13589;DHT22;6865;52.552;13.434;2023-09-08T07:39:07;22.80;99.90
13589;DHT22;6865;52.552;13.434;2023-09-08T07:41:33;22.60;99.90
13589;DHT22;6865;52.552;13.434;2023-09-08T07:44:01;22.40;99.90
13589;DHT22;6865;52.552;13.434;2023-09-08T07:46:28;22.20;99.90
13589;DHT22;6865;52.552;13.434;2023-09-08T07:48:54;22.20;99.90
13589;DHT22;6865;52.552;13.434;2023-09-08T07:51:21;22.10;99.90
13589;DHT22;6865;52.552;13.434;2023-09-08T07:53:48;22.00;99.90
13589;DHT22;6865;52.552;13.434;2023-09-08T07:56:15;22.10;99.90
13589;DHT22;6865;52.552;13.434;2023-09-08T07:58:41;22.10;99.90
13589;DHT22;6865;52.552;13.434;2023-09-08T08:01:08;22.20;99.90
13589;DHT22;6865;52.552;13.434;2023-09-08T08:03:35;22.20;99.90
13589;DHT22;6865;52.552;13.434;2023-09-08T08:06:02;22.30;99.90
13589;DHT22;6865;52.552;13.434;2023-09-08T08:08:29;22.30;99.90
13589;DHT22;6865;52.552;13.434;2023-09-08T08:10:57;22.40;99.90
13589;DHT22;6865;52.552;13.434;2023-09-08T08:13:24;22.50;99.90
13589;DHT22;6865;52.552;13.434;2023-09-08T08:15:50;22.50;99.90
13589;DHT22;6865;52.552;13.434;2023-09-08T08:18:17;22.70;99.90
13589;DHT22;6865;52.552;13.434;2023-09-08T08:20:45;22.80;99.90
13589;DHT22;6865;52.552;13.434;2023-09-08T08:23:12;22.20;99.90
13589;DHT22;6865;52.552;13.434;2023-09-08T08:25:38;22.90;99.90
13589;DHT22;6865;52.552;13.434;2023-09-08T08:28:05;23.00;99.90
13589;DHT22;6865;52.552;13.434;2023-09-08T08:30:32;23.00;99.90
13589;DHT22;6865;52.552;13.434;2023-09-08T08:32:59;23.10;99.90
13589;DHT22;6865;52.552;13.434;2023-09-08T08:35:26;23.20;99.90
13589;DHT22;6865;52.552;13.434;2023-09-08T08:37:53;23.30;99.90
13589;DHT22;6865;52.552;13.434;2023-09-08T08:40:20;23.40;99.90
13589;DHT22;6865;52.552;13.434;2023-09-08T08:42:47;23.60;99.90
13589;DHT22;6865;52.552;13.434;2023-09-08T08:45:16;23.70;99.90
13589;DHT22;6865;52.552;13.434;2023-09-08T08:47:46;23.80;99.90
13589;DHT22;6865;52.552;13.434;2023-09-08T08:50:13;24.00;99.90
13589;DHT22;6865;52.552;13.434;2023-09-08T08:52:40;24.00;99.90
13589;DHT22;6865;52.552;13.434;2023-09-08T08:55:07;24.00;99.90
13589;DHT22;6865;52.552;13.434;2023-09-08T08:57:37;24.20;99.90
13589;DHT22;6865;52.552;13.434;2023-09-08T09:00:07;24.30;99.90
13589;DHT22;6865;52.552;13.434;2023-09-08T09:02:39;24.40;99.90
13589;DHT22;6865;52.552;13.434;2023-09-08T09:05:08;24.50;99.90
13589;DHT22;6865;52.552;13.434;2023-09-08T09:07:35;24.60;99.90
13589;DHT22;6865;52.552;13.434;2023-09-08T09:10:04;24.50;99.90
13589;DHT22;6865;52.552;13.434;2023-09-08T09:12:31;24.70;99.90
13589;DHT22;6865;52.552;13.434;2023-09-08T09:14:58;24.70;99.80
13589;DHT22;6865;52.552;13.434;2023-09-08T09:17:26;24.70;99.90
13589;DHT22;6865;52.552;13.434;2023-09-08T09:20:15;24.80;99.80
13589;DHT22;6865;52.552;13.434;2023-09-08T09:22:44;24.80;99.90
13589;DHT22;6865;52.552;13.434;2023-09-08T09:25:22;24.90;99.70
13589;DHT22;6865;52.552;13.434;2023-09-08T09:28:00;24.90;99.50
13589;DHT22;6865;52.552;13.434;2023-09-08T09:30:28;25.00;99.60
13589;DHT22;6865;52.552;13.434;2023-09-08T09:33:02;25.10;99.10
13589;DHT22;6865;52.552;13.434;2023-09-08T09:35:42;25.10;98.80
13589;DHT22;6865;52.552;13.434;2023-09-08T09:38:10;25.20;98.80
13589;DHT22;6865;52.552;13.434;2023-09-08T09:40:37;25.20;98.50
13589;DHT22;6865;52.552;13.434;2023-09-08T09:43:07;25.30;98.60
13589;DHT22;6865;52.552;13.434;2023-09-08T09:45:35;25.30;98.30
13589;DHT22;6865;52.552;13.434;2023-09-08T09:48:03;25.30;98.40
13589;DHT22;6865;52.552;13.434;2023-09-08T09:50:39;25.30;98.50
13589;DHT22;6865;52.552;13.434;2023-09-08T09:53:11;25.50;98.40
13589;DHT22;6865;52.552;13.434;2023-09-08T09:55:41;25.60;98.20
13589;DHT22;6865;52.552;13.434;2023-09-08T09:58:09;25.70;97.50
13589;DHT22;6865;52.552;13.434;2023-09-08T10:00:38;25.60;97.30
13589;DHT22;6865;52.552;13.434;2023-09-08T10:03:07;25.60;97.20
13589;DHT22;6865;52.552;13.434;2023-09-08T10:05:36;25.70;97.20
13589;DHT22;6865;52.552;13.434;2023-09-08T10:08:03;25.80;96.80
13589;DHT22;6865;52.552;13.434;2023-09-08T10:10:32;25.90;97.00
13589;DHT22;6865;52.552;13.434;2023-09-08T10:13:02;25.90;96.40
13589;DHT22;6865;52.552;13.434;2023-09-08T10:15:32;25.90;96.10
13589;DHT22;6865;52.552;13.434;2023-09-08T10:18:04;25.90;96.10
13589;DHT22;6865;52.552;13.434;2023-09-08T10:20:33;26.10;95.90
13589;DHT22;6865;52.552;13.434;2023-09-08T10:23:23;26.00;95.90
13589;DHT22;6865;52.552;13.434;2023-09-08T10:25:56;26.10;96.10
13589;DHT22;6865;52.552;13.434;2023-09-08T10:28:28;26.20;95.70
13589;DHT22;6865;52.552;13.434;2023-09-08T10:30:56;26.30;95.70
13589;DHT22;6865;52.552;13.434;2023-09-08T10:33:23;26.40;95.40
13589;DHT22;6865;52.552;13.434;2023-09-08T10:35:51;26.40;94.50
13589;DHT22;6865;52.552;13.434;2023-09-08T10:38:25;26.40;95.00
13589;DHT22;6865;52.552;13.434;2023-09-08T10:40:53;26.40;95.00
13589;DHT22;6865;52.552;13.434;2023-09-08T10:43:20;26.50;94.70
13589;DHT22;6865;52.552;13.434;2023-09-08T10:45:47;26.60;94.50
13589;DHT22;6865;52.552;13.434;2023-09-08T10:48:14;26.60;94.20
13589;DHT22;6865;52.552;13.434;2023-09-08T10:50:42;26.70;94.30
13589;DHT22;6865;52.552;13.434;2023-09-08T10:53:17;26.70;93.70
13589;DHT22;6865;52.552;13.434;2023-09-08T10:55:49;26.80;93.90
13589;DHT22;6865;52.552;13.434;2023-09-08T10:58:38;26.80;93.60
13589;DHT22;6865;52.552;13.434;2023-09-08T11:01:07;26.90;93.80
13589;DHT22;6865;52.552;13.434;2023-09-08T11:06:05;27.00;93.30
13589;DHT22;6865;52.552;13.434;2023-09-08T11:08:38;27.10;93.30
13589;DHT22;6865;52.552;13.434;2023-09-08T11:11:06;27.20;93.10
13589;DHT22;6865;52.552;13.434;2023-09-08T11:13:33;27.10;93.10
13589;DHT22;6865;52.552;13.434;2023-09-08T11:16:01;27.20;92.70
13589;DHT22;6865;52.552;13.434;2023-09-08T11:18:32;27.30;92.40
13589;DHT22;6865;52.552;13.434;2023-09-08T11:21:07;27.30;92.20
13589;DHT22;6865;52.552;13.434;2023-09-08T11:23:35;27.40;92.10
13589;DHT22;6865;52.552;13.434;2023-09-08T11:26:02;27.30;92.10
13589;DHT22;6865;52.552;13.434;2023-09-08T11:28:29;27.30;91.50
13589;DHT22;6865;52.552;13.434;2023-09-08T11:30:56;27.30;91.70
13589;DHT22;6865;52.552;13.434;2023-09-08T11:33:24;27.40;91.00
13589;DHT22;6865;52.552;13.434;2023-09-08T11:35:53;27.40;91.00
13589;DHT22;6865;52.552;13.434;2023-09-08T11:38:25;27.50;91.10
13589;DHT22;6865;52.552;13.434;2023-09-08T11:40:57;27.50;90.50
13589;DHT22;6865;52.552;13.434;2023-09-08T11:43:25;27.40;89.60
13589;DHT22;6865;52.552;13.434;2023-09-08T11:45:52;27.50;90.70
13589;DHT22;6865;52.552;13.434;2023-09-08T11:48:19;27.50;90.40
13589;DHT22;6865;52.552;13.434;2023-09-08T11:50:46;27.50;90.40
13589;DHT22;6865;52.552;13.434;2023-09-08T11:53:12;27.60;89.80
13589;DHT22;6865;52.552;13.434;2023-09-08T11:55:44;27.60;90.00
13589;DHT22;6865;52.552;13.434;2023-09-08T11:58:11;27.60;89.20
13589;DHT22;6865;52.552;13.434;2023-09-08T12:00:38;27.70;88.80
13589;DHT22;6865;52.552;13.434;2023-09-08T12:03:13;27.60;88.60
13589;DHT22;6865;52.552;13.434;2023-09-08T12:05:40;27.70;89.00
13589;DHT22;6865;52.552;13.434;2023-09-08T12:08:08;27.70;89.70
13589;DHT22;6865;52.552;13.434;2023-09-08T12:10:41;27.80;89.00
13589;DHT22;6865;52.552;13.434;2023-09-08T12:13:09;27.80;88.60
13589;DHT22;6865;52.552;13.434;2023-09-08T12:15:38;27.90;87.30
13589;DHT22;6865;52.552;13.434;2023-09-08T12:18:11;28.00;86.90
13589;DHT22;6865;52.552;13.434;2023-09-08T12:20:39;28.00;86.00
13589;DHT22;6865;52.552;13.434;2023-09-08T12:25:45;28.00;86.20
13589;DHT22;6865;52.552;13.434;2023-09-08T12:28:11;28.00;84.90
13589;DHT22;6865;52.552;13.434;2023-09-08T12:30:39;28.10;83.80
13589;DHT22;6865;52.552;13.434;2023-09-08T12:33:08;28.10;83.60
13589;DHT22;6865;52.552;13.434;2023-09-08T12:35:42;28.10;82.00
13589;DHT22;6865;52.552;13.434;2023-09-08T12:38:09;28.20;82.70
13589;DHT22;6865;52.552;13.434;2023-09-08T12:40:37;28.20;81.30
13589;DHT22;6865;52.552;13.434;2023-09-08T12:43:05;28.20;81.90
13589;DHT22;6865;52.552;13.434;2023-09-08T12:45:37;28.30;82.60
13589;DHT22;6865;52.552;13.434;2023-09-08T12:48:04;28.10;83.10
13589;DHT22;6865;52.552;13.434;2023-09-08T12:50:33;28.10;82.40
13589;DHT22;6865;52.552;13.434;2023-09-08T12:52:59;28.10;82.60
13589;DHT22;6865;52.552;13.434;2023-09-08T12:55:26;28.20;82.70
13589;DHT22;6865;52.552;13.434;2023-09-08T12:57:53;28.20;81.90
13589;DHT22;6865;52.552;13.434;2023-09-08T13:00:23;28.20;80.20
13589;DHT22;6865;52.552;13.434;2023-09-08T13:02:51;28.30;79.80
13589;DHT22;6865;52.552;13.434;2023-09-08T13:05:18;28.30;80.80
13589;DHT22;6865;52.552;13.434;2023-09-08T13:07:45;28.30;81.00
13589;DHT22;6865;52.552;13.434;2023-09-08T13:10:12;28.30;81.30
13589;DHT22;6865;52.552;13.434;2023-09-08T13:12:39;28.40;82.20
13589;DHT22;6865;52.552;13.434;2023-09-08T13:15:06;28.40;81.20
13589;DHT22;6865;52.552;13.434;2023-09-08T13:17:33;28.40;80.60
13589;DHT22;6865;52.552;13.434;2023-09-08T13:20:00;28.30;81.00
13589;DHT22;6865;52.552;13.434;2023-09-08T13:22:27;27.60;80.00
13589;DHT22;6865;52.552;13.434;2023-09-08T13:24:54;28.40;81.60
13589;DHT22;6865;52.552;13.434;2023-09-08T13:27:21;28.30;83.00
13589;DHT22;6865;52.552;13.434;2023-09-08T13:29:48;28.30;82.40
13589;DHT22;6865;52.552;13.434;2023-09-08T13:32:15;28.20;83.00
13589;DHT22;6865;52.552;13.434;2023-09-08T13:34:42;28.20;81.20
13589;DHT22;6865;52.552;13.434;2023-09-08T13:37:10;28.20;81.60
13589;DHT22;6865;52.552;13.434;2023-09-08T13:39:36;28.30;81.90
13589;DHT22;6865;52.552;13.434;2023-09-08T13:42:03;28.40;81.70
13589;DHT22;6865;52.552;13.434;2023-09-08T13:44:30;28.40;81.40
13589;DHT22;6865;52.552;13.434;2023-09-08T13:46:57;28.50;79.90
13589;DHT22;6865;52.552;13.434;2023-09-08T13:49:26;28.50;79.90
13589;DHT22;6865;52.552;13.434;2023-09-08T13:51:53;28.50;79.00
13589;DHT22;6865;52.552;13.434;2023-09-08T13:54:23;28.70;79.90
13589;DHT22;6865;52.552;13.434;2023-09-08T13:56:59;28.60;79.30
13589;DHT22;6865;52.552;13.434;2023-09-08T13:59:28;28.50;79.60
13589;DHT22;6865;52.552;13.434;2023-09-08T14:02:01;28.60;79.20
13589;DHT22;6865;52.552;13.434;2023-09-08T14:04:50;28.50;78.40
13589;DHT22;6865;52.552;13.434;2023-09-08T14:07:21;28.50;79.00
13589;DHT22;6865;52.552;13.434;2023-09-08T14:09:53;28.50;78.20
13589;DHT22;6865;52.552;13.434;2023-09-08T14:12:31;28.50;78.30
13589;DHT22;6865;52.552;13.434;2023-09-08T14:15:02;28.50;78.90
13589;DHT22;6865;52.552;13.434;2023-09-08T14:17:29;28.50;78.80
13589;DHT22;6865;52.552;13.434;2023-09-08T14:19:56;28.50;78.70
13589;DHT22;6865;52.552;13.434;2023-09-08T14:22:22;28.30;78.80
13589;DHT22;6865;52.552;13.434;2023-09-08T14:24:49;28.60;78.60
13589;DHT22;6865;52.552;13.434;2023-09-08T14:27:16;28.20;78.20
13589;DHT22;6865;52.552;13.434;2023-09-08T14:29:43;28.30;78.50
13589;DHT22;6865;52.552;13.434;2023-09-08T14:32:10;28.30;78.00
13589;DHT22;6865;52.552;13.434;2023-09-08T14:34:37;28.40;77.70
13589;DHT22;6865;52.552;13.434;2023-09-08T14:37:03;28.30;76.70
13589;DHT22;6865;52.552;13.434;2023-09-08T14:39:32;28.30;77.20
13589;DHT22;6865;52.552;13.434;2023-09-08T14:41:59;28.30;76.30
13589;DHT22;6865;52.552;13.434;2023-09-08T14:44:25;28.20;76.50
13589;DHT22;6865;52.552;13.434;2023-09-08T14:46:52;28.30;76.80
13589;DHT22;6865;52.552;13.434;2023-09-08T14:49:19;28.30;76.70
13589;DHT22;6865;52.552;13.434;2023-09-08T14:51:45;28.30;75.60
13589;DHT22;6865;52.552;13.434;2023-09-08T14:54:12;28.30;74.60
13589;DHT22;6865;52.552;13.434;2023-09-08T14:56:39;28.30;74.60
13589;DHT22;6865;52.552;13.434;2023-09-08T14:59:06;28.30;74.70
13589;DHT22;6865;52.552;13.434;2023-09-08T15:01:32;28.50;75.40
13589;DHT22;6865;52.552;13.434;2023-09-08T15:03:59;28.30;75.20
13589;DHT22;6865;52.552;13.434;2023-09-08T15:06:26;28.30;74.50
13589;DHT22;6865;52.552;13.434;2023-09-08T15:08:54;28.20;74.00
13589;DHT22;6865;52.552;13.434;2023-09-08T15:11:20;28.10;74.30
13589;DHT22;6865;52.552;13.434;2023-09-08T15:13:47;28.10;75.00
13589;DHT22;6865;52.552;13.434;2023-09-08T15:16:14;28.00;74.80
13589;DHT22;6865;52.552;13.434;2023-09-08T15:18:41;27.80;73.80
13589;DHT22;6865;52.552;13.434;2023-09-08T15:21:08;27.90;74.10
13589;DHT22;6865;52.552;13.434;2023-09-08T15:23:35;27.90;74.30
13589;DHT22;6865;52.552;13.434;2023-09-08T15:26:02;27.90;75.80
13589;DHT22;6865;52.552;13.434;2023-09-08T15:28:30;27.90;76.20
13589;DHT22;6865;52.552;13.434;2023-09-08T15:30:57;27.90;75.30
13589;DHT22;6865;52.552;13.434;2023-09-08T15:33:23;27.90;75.30
13589;DHT22;6865;52.552;13.434;2023-09-08T15:35:53;27.70;75.70
13589;DHT22;6865;52.552;13.434;2023-09-08T15:38:23;27.70;74.80
13589;DHT22;6865;52.552;13.434;2023-09-08T15:41:14;27.70;74.60